createdAt,value
2023-05-14T00:03:24.300Z,105.67979
2023-05-14T00:08:26.389Z,104.83551
2023-05-14T00:13:28.397Z,104.41667
2023-05-14T00:18:30.013Z,103.58549
2023-05-14T00:23:31.614Z,102.35476
2023-05-14T00:28:33.195Z,101.54476
2023-05-14T00:33:34.872Z,101.14286
2023-05-14T00:38:36.478Z,99.55556
2023-05-14T00:43:37.873Z,98.38596
2023-05-14T00:48:39.458Z,96.8536
2023-05-14T00:53:41.230Z,95.35135
2023-05-14T00:58:42.882Z,97.23383
2023-05-14T01:03:44.285Z,97.23383
2023-05-14T01:08:45.982Z,99.55556
2023-05-14T01:13:47.570Z,101.94872
2023-05-14T01:18:49.374Z,103.58549
2023-05-14T01:23:51.019Z,105.25654
2023-05-14T01:28:52.694Z,109.14745
2023-05-14T01:33:54.266Z,117.52113
2023-05-14T01:38:55.851Z,122.55072
2023-05-14T01:43:57.342Z,123.59184
2023-05-14T01:48:58.671Z,120.5043
2023-05-14T01:53:59.997Z,113.69697
2023-05-14T01:59:01.681Z,116.06704
2023-05-14T02:04:03.209Z,110.03774
2023-05-14T02:09:05.034Z,114.63712
2023-05-14T02:14:06.329Z,110.93767
2023-05-14T02:19:07.706Z,110.93767
2023-05-14T02:24:09.090Z,107.82979
2023-05-14T02:29:10.823Z,105.25654
2023-05-14T02:34:12.414Z,110.48649
2023-05-14T02:39:14.075Z,110.03774
2023-05-14T02:44:15.797Z,110.03774
2023-05-14T02:49:17.640Z,108.70588
2023-05-14T02:54:19.245Z,110.48649
2023-05-14T02:59:21.017Z,112.30601
2023-05-14T03:04:23.173Z,111.3913
2023-05-14T03:09:25.334Z,110.48649
2023-05-14T03:14:27.092Z,110.93767
2023-05-14T03:19:28.549Z,106.10526
2023-05-14T03:24:30.207Z,105.25654
2023-05-14T03:29:31.882Z,110.93767
2023-05-14T03:34:33.654Z,107.39523
2023-05-14T03:39:35.334Z,106.53298
2023-05-14T03:44:37.093Z,105.67979
2023-05-14T03:49:38.649Z,102.76289
2023-05-14T03:54:40.214Z,105.67979
2023-05-14T03:59:41.933Z,105.67979
2023-05-14T04:04:43.670Z,103.17313
2023-05-14T04:09:45.997Z,106.10526
2023-05-14T04:14:47.752Z,108.26667
2023-05-14T04:19:49.294Z,109.14745
2023-05-14T04:24:50.884Z,106.10526
2023-05-14T04:29:52.556Z,105.67979
2023-05-14T04:34:54.172Z,108.26667
2023-05-14T04:39:55.905Z,106.96296
2023-05-14T04:44:57.233Z,106.53298
2023-05-14T04:49:58.513Z,106.53298
2023-05-14T04:54:59.767Z,103.17313
2023-05-14T05:00:01.347Z,106.10526
2023-05-14T05:05:02.588Z,106.10526
2023-05-14T05:10:03.938Z,104.83551
2023-05-14T05:15:05.317Z,105.25654
2023-05-14T05:20:06.599Z,102.35476
2023-05-14T05:25:08.052Z,106.10526
2023-05-14T05:30:09.375Z,103.58549
2023-05-14T05:35:10.773Z,101.54476
2023-05-14T05:40:12.420Z,104
2023-05-14T05:45:14.137Z,101.94872
2023-05-14T05:50:15.529Z,102.76289
2023-05-14T05:55:16.957Z,104.83551
2023-05-14T06:00:18.376Z,103.17313
2023-05-14T06:05:19.809Z,107.39523
2023-05-14T06:10:21.621Z,108.26667
2023-05-14T06:15:23.481Z,107.39523
2023-05-14T06:20:25.300Z,96.8536
2023-05-14T06:25:27.126Z,93.51456
2023-05-14T06:30:28.737Z,99.55556
2023-05-14T06:35:30.357Z,104
2023-05-14T06:40:31.993Z,110.03774
2023-05-14T06:45:33.627Z,112.30601
2023-05-14T06:50:35.451Z,121.01149
2023-05-14T06:55:37.195Z,127.8806
2023-05-14T07:00:38.489Z,134.12346
2023-05-14T07:05:40.051Z,125.17647
2023-05-14T07:10:41.456Z,120
2023-05-14T07:15:42.771Z,147.30033
2023-05-14T07:20:44.103Z,149.33333
2023-05-14T07:25:45.747Z,158.63415
2023-05-14T07:30:47.327Z,171.30627
2023-05-14T07:35:48.897Z,165.58273
2023-05-14T07:40:50.575Z,170.47059
2023-05-14T07:45:52.287Z,171.30627
2023-05-14T07:50:53.944Z,179.1145
2023-05-14T07:55:55.513Z,182.75969
2023-05-14T08:00:57.146Z,178.22053
2023-05-14T08:05:58.389Z,164
2023-05-14T08:10:59.920Z,186.51969
2023-05-14T08:16:01.368Z,187.47826
2023-05-14T08:21:03.737Z,198.54545
2023-05-14T08:26:05.399Z,198.54545
2023-05-14T08:31:07.011Z,177.33333
2023-05-14T08:36:08.302Z,190.4
2023-05-14T08:41:09.584Z,202.82353
2023-05-14T08:46:11.234Z,189.41833
2023-05-14T08:51:12.662Z,186.51969
2023-05-14T08:56:14.011Z,177.33333
2023-05-14T09:01:15.451Z,184.625
2023-05-14T09:06:16.819Z,202.82353
2023-05-14T09:11:18.510Z,224
2023-05-14T09:16:19.965Z,208.37768
2023-05-14T09:21:21.260Z,214.17544
2023-05-14T09:26:22.571Z,212.99563
2023-05-14T09:31:23.831Z,222.73303
2023-05-14T09:36:25.128Z,205.01695
2023-05-14T09:41:26.385Z,215.36564
2023-05-14T09:46:27.719Z,207.24786
2023-05-14T09:51:29.198Z,209.51724
2023-05-14T09:56:30.877Z,217.77778
2023-05-14T10:01:32.625Z,205.01695
2023-05-14T10:06:34.228Z,214.17544
2023-05-14T10:11:36.285Z,201.74059
2023-05-14T10:16:38.136Z,243.02913
2023-05-14T10:21:39.506Z,247.44828
2023-05-14T10:26:41.112Z,234.56604
2023-05-14T10:31:42.957Z,231.85047
2023-05-14T10:36:44.303Z,235.94313
2023-05-14T10:41:45.606Z,227.87097
2023-05-14T10:46:47.321Z,244.4878
2023-05-14T10:51:49.021Z,0
2023-05-14T10:56:50.618Z,248.9505
2023-05-14T11:01:52.432Z,247.44828
2023-05-14T11:06:53.803Z,240.15385
2023-05-14T11:11:55.964Z,247.44828
2023-05-14T11:16:57.757Z,224
2023-05-14T11:21:59.093Z,227.87097
2023-05-14T11:27:00.470Z,0
2023-05-14T11:32:01.899Z,235.94313
2023-05-14T11:37:03.344Z,240.15385
2023-05-14T11:42:04.777Z,244.4878
2023-05-14T11:47:06.153Z,233.20188
2023-05-14T11:52:07.749Z,0
2023-05-14T11:57:09.055Z,0
2023-05-14T12:02:10.542Z,250.46766
2023-05-14T12:07:11.848Z,248.9505
2023-05-14T12:12:13.427Z,244.4878
2023-05-14T12:17:14.944Z,0
2023-05-14T12:22:16.240Z,0
2023-05-14T12:27:17.624Z,0
2023-05-14T12:32:19.067Z,0
2023-05-14T12:37:20.349Z,0
2023-05-14T12:42:21.904Z,0
2023-05-14T12:47:23.535Z,229.18519
2023-05-14T12:52:36.780Z,0
2023-05-14T12:57:40.854Z,241.58454
2023-05-14T13:02:43.891Z,238.73684
2023-05-14T13:07:45.838Z,0
2023-05-14T13:12:47.588Z,238.73684
2023-05-14T13:17:49.352Z,0
2023-05-14T13:22:50.955Z,0
2023-05-14T13:27:52.444Z,0
2023-05-14T13:32:54.708Z,0
2023-05-14T13:37:56.762Z,0
2023-05-14T13:42:59.003Z,0
2023-05-14T13:48:01.065Z,0
2023-05-14T13:53:02.614Z,0
2023-05-14T13:58:04.316Z,0
2023-05-14T14:03:05.663Z,0
2023-05-14T14:08:21.973Z,0
2023-05-14T14:13:25.193Z,0
2023-05-14T14:18:27.080Z,0
2023-05-14T14:23:28.788Z,231.85047
2023-05-14T14:28:30.685Z,0
2023-05-14T14:33:32.334Z,0
2023-05-14T14:38:33.950Z,0
2023-05-14T14:43:35.679Z,0
2023-05-14T14:48:37.505Z,0
2023-05-14T14:53:39.441Z,0
2023-05-14T14:58:41.079Z,0
2023-05-14T15:03:42.803Z,241.58454
2023-05-14T15:08:44.439Z,0
2023-05-14T15:13:45.835Z,0
2023-05-14T15:18:47.597Z,0
2023-05-14T15:23:49.226Z,0
2023-05-14T15:28:50.893Z,238.73684
2023-05-14T15:33:52.809Z,231.85047
2023-05-14T15:38:54.574Z,203.91561
2023-05-14T15:43:56.161Z,220.23318
2023-05-14T15:48:57.948Z,215.36564
2023-05-14T15:53:59.501Z,206.12766
2023-05-14T15:59:00.763Z,203.91561
2023-05-14T16:04:02.261Z,191.38956
2023-05-14T16:09:03.628Z,207.24786
2023-05-14T16:14:04.985Z,202.82353
2023-05-14T16:19:06.497Z,220.23318
2023-05-14T16:24:07.913Z,211.82609
2023-05-14T16:29:09.413Z,222.73303
2023-05-14T16:34:11.018Z,233.20188
2023-05-14T16:39:12.428Z,238.73684
2023-05-14T16:44:14.014Z,219
2023-05-14T16:49:15.482Z,225.27854
2023-05-14T16:54:16.984Z,224
2023-05-14T16:59:18.734Z,222.73303
2023-05-14T17:04:20.269Z,227.87097
2023-05-14T17:09:21.832Z,211.82609
2023-05-14T17:14:23.589Z,210.66667
2023-05-14T17:19:25.164Z,244.4878
2023-05-14T17:24:26.794Z,0
2023-05-14T17:29:28.344Z,0
2023-05-14T17:34:30.031Z,0
2023-05-14T17:39:31.540Z,0
2023-05-14T17:44:33.081Z,0
2023-05-14T17:49:34.664Z,0
2023-05-14T17:54:36.392Z,0
2023-05-14T17:59:38.275Z,0
2023-05-14T18:04:40.426Z,0
2023-05-14T18:09:42.544Z,0
2023-05-14T18:14:45.749Z,205.01695
2023-05-14T18:19:47.765Z,208.37768
2023-05-14T18:24:49.537Z,224
2023-05-14T18:29:51.273Z,216.56637
2023-05-14T18:34:52.942Z,220.23318
2023-05-14T18:39:54.830Z,221.47748
2023-05-14T18:44:56.576Z,202.82353
2023-05-14T18:49:58.624Z,189.41833
2023-05-14T18:55:00.388Z,192.3871
2023-05-14T19:00:01.744Z,191.38956
2023-05-14T19:05:03.390Z,194.4065
2023-05-14T19:10:05.534Z,187.47826
2023-05-14T19:15:07.428Z,185.56863
2023-05-14T19:20:09.282Z,184.625
2023-05-14T19:25:10.869Z,185.56863
2023-05-14T19:30:12.433Z,169.64103
2023-05-14T19:35:13.872Z,155.68385
2023-05-14T19:40:15.504Z,160.90141
2023-05-14T19:45:17.358Z,172.14815
2023-05-14T19:50:19.186Z,179.1145
2023-05-14T19:55:20.525Z,182.75969
2023-05-14T20:00:21.866Z,184.625
2023-05-14T20:05:23.746Z,189.41833
2023-05-14T20:10:26.025Z,183.68872
2023-05-14T20:15:27.920Z,181.83784
2023-05-14T20:20:31.955Z,175.57895
2023-05-14T20:25:34.797Z,175.57895
2023-05-14T20:30:36.134Z,178.22053
2023-05-14T20:35:37.834Z,182.75969
2023-05-14T20:40:39.185Z,180.01533
2023-05-14T20:45:40.562Z,182.75969
2023-05-14T20:50:41.855Z,177.33333
2023-05-14T20:55:44.744Z,179.1145
2023-05-14T21:00:46.053Z,179.1145
2023-05-14T21:05:47.547Z,182.75969
2023-05-14T21:10:49.244Z,180.92308
2023-05-14T21:15:50.646Z,187.47826
2023-05-14T21:20:52.015Z,184.625
2023-05-14T21:25:53.434Z,175.57895
2023-05-14T21:30:54.758Z,167.18841
2023-05-14T21:35:56.350Z,172.14815
2023-05-14T21:40:57.790Z,173.85075
2023-05-14T21:45:59.045Z,181.83784
2023-05-14T21:51:00.765Z,175.57895
2023-05-14T21:56:02.009Z,170.47059
2023-05-14T22:01:03.352Z,155.68385
2023-05-14T22:06:04.636Z,159.38462
2023-05-14T22:11:05.901Z,156.41379
2023-05-14T22:16:12.879Z,157.14879
2023-05-14T22:21:15.727Z,164.78853
2023-05-14T22:26:17.477Z,161.66784
2023-05-14T22:31:19.065Z,170.47059
2023-05-14T22:36:20.977Z,168.81752
2023-05-14T22:41:22.625Z,174.71161
2023-05-14T22:46:24.552Z,170.47059
2023-05-14T22:51:26.526Z,175.57895
2023-05-14T22:56:28.114Z,177.33333
2023-05-14T23:01:29.718Z,177.33333
2023-05-14T23:06:31.357Z,168.81752
2023-05-14T23:11:33.001Z,168
2023-05-14T23:16:35.089Z,172.14815
2023-05-14T23:21:36.706Z,169.64103
2023-05-14T23:26:38.505Z,175.57895
2023-05-14T23:31:40.210Z,171.30627
2023-05-14T23:36:41.937Z,170.47059
2023-05-14T23:41:43.568Z,157.14879
2023-05-14T23:46:45.158Z,163.21708
2023-05-14T23:51:46.980Z,156.41379
2023-05-14T23:56:48.476Z,162.43972
